sensor_id;sensor_type;location;lat;lon;timestamp;pressure;altitude;pressure_sealevel;temperature;humidity
79048;BME280;68680;50.764;6.120;2023-03-20T00:00:22;99792.66;;;7.61;77.64
79048;BME280;68680;50.764;6.120;2023-03-20T00:02:49;99790.59;;;7.63;78.92
79048;BME280;68680;50.764;6.120;2023-03-20T00:05:18;99793.50;;;7.68;78.15
79048;BME280;68680;50.764;6.120;2023-03-20T00:07:45;99798.00;;;7.68;77.89
79048;BME280;68680;50.764;6.120;2023-03-20T00:10:12;99798.00;;;7.68;78.81
79048;BME280;68680;50.764;6.120;2023-03-20T00:12:38;99792.44;;;7.63;77.34
79048;BME280;68680;50.764;6.120;2023-03-20T00:15:09;99803.88;;;7.63;78.02
79048;BME280;68680;50.764;6.120;2023-03-20T00:17:41;99802.03;;;7.64;77.35
79048;BME280;68680;50.764;6.120;2023-03-20T00:20:13;99799.59;;;7.62;77.42
79048;BME280;68680;50.764;6.120;2023-03-20T00:22:39;99808.97;;;7.65;78.11
79048;BME280;68680;50.764;6.120;2023-03-20T00:25:08;99815.91;;;7.59;77.83
79048;BME280;68680;50.764;6.120;2023-03-20T00:27:36;99817.34;;;7.62;77.46
79048;BME280;68680;50.764;6.120;2023-03-20T00:30:04;99812.66;;;7.64;78.44
79048;BME280;68680;50.764;6.120;2023-03-20T00:32:37;99820.19;;;7.60;78.26
79048;BME280;68680;50.764;6.120;2023-03-20T00:35:18;99826.50;;;7.59;78.24
79048;BME280;68680;50.764;6.120;2023-03-20T00:37:44;99827.75;;;7.63;77.66
79048;BME280;68680;50.764;6.120;2023-03-20T00:40:12;99823.69;;;7.61;78.73
79048;BME280;68680;50.764;6.120;2023-03-20T00:42:38;99823.84;;;7.59;78.51
79048;BME280;68680;50.764;6.120;2023-03-20T00:45:07;99828.16;;;7.60;78.25
79048;BME280;68680;50.764;6.120;2023-03-20T00:47:37;99835.50;;;7.58;79.00
79048;BME280;68680;50.764;6.120;2023-03-20T00:50:15;99837.13;;;7.59;79.24
79048;BME280;68680;50.764;6.120;2023-03-20T00:52:41;99828.78;;;7.62;78.16
79048;BME280;68680;50.764;6.120;2023-03-20T00:55:08;99831.44;;;7.62;78.83
79048;BME280;68680;50.764;6.120;2023-03-20T00:57:41;99830.63;;;7.62;78.64
79048;BME280;68680;50.764;6.120;2023-03-20T01:00:24;99829.94;;;7.53;78.42
79048;BME280;68680;50.764;6.120;2023-03-20T01:02:53;99826.47;;;7.53;78.14
79048;BME280;68680;50.764;6.120;2023-03-20T01:05:20;99828.75;;;7.56;78.38
79048;BME280;68680;50.764;6.120;2023-03-20T01:07:47;99832.41;;;7.55;78.63
79048;BME280;68680;50.764;6.120;2023-03-20T01:10:13;99823.63;;;7.54;78.03
79048;BME280;68680;50.764;6.120;2023-03-20T01:12:41;99810.94;;;7.50;78.21
79048;BME280;68680;50.764;6.120;2023-03-20T01:15:18;99801.97;;;7.51;78.04
79048;BME280;68680;50.764;6.120;2023-03-20T01:17:44;99803.19;;;7.48;77.98
79048;BME280;68680;50.764;6.120;2023-03-20T01:20:16;99798.28;;;7.45;78.32
79048;BME280;68680;50.764;6.120;2023-03-20T01:22:43;99785.44;;;7.49;77.97
79048;BME280;68680;50.764;6.120;2023-03-20T01:25:09;99778.44;;;7.41;78.37
79048;BME280;68680;50.764;6.120;2023-03-20T01:27:35;99776.56;;;7.35;78.70
79048;BME280;68680;50.764;6.120;2023-03-20T01:30:02;99769.38;;;7.29;78.32
79048;BME280;68680;50.764;6.120;2023-03-20T01:32:27;99761.59;;;7.21;78.45
79048;BME280;68680;50.764;6.120;2023-03-20T01:34:53;99762.13;;;7.10;79.31
79048;BME280;68680;50.764;6.120;2023-03-20T01:37:24;99755.94;;;7.03;79.79
79048;BME280;68680;50.764;6.120;2023-03-20T01:39:52;99755.06;;;6.95;79.22
79048;BME280;68680;50.764;6.120;2023-03-20T01:42:20;99763.56;;;6.84;80.20
79048;BME280;68680;50.764;6.120;2023-03-20T01:44:46;99762.09;;;6.82;79.84
79048;BME280;68680;50.764;6.120;2023-03-20T01:47:17;99756.13;;;6.73;81.32
79048;BME280;68680;50.764;6.120;2023-03-20T01:50:23;99766.25;;;6.63;81.35
79048;BME280;68680;50.764;6.120;2023-03-20T01:52:57;99763.78;;;6.62;82.05
79048;BME280;68680;50.764;6.120;2023-03-20T01:55:27;99773.13;;;6.57;82.22
79048;BME280;68680;50.764;6.120;2023-03-20T01:57:59;99775.78;;;6.57;82.07
79048;BME280;68680;50.764;6.120;2023-03-20T02:00:27;99782.44;;;6.53;81.63
79048;BME280;68680;50.764;6.120;2023-03-20T02:02:53;99802.31;;;6.43;82.33
79048;BME280;68680;50.764;6.120;2023-03-20T02:05:21;99798.16;;;6.34;82.65
79048;BME280;68680;50.764;6.120;2023-03-20T02:07:58;99789.75;;;6.30;82.88
79048;BME280;68680;50.764;6.120;2023-03-20T02:10:28;99779.72;;;6.26;82.60
79048;BME280;68680;50.764;6.120;2023-03-20T02:12:55;99772.78;;;6.25;82.54
79048;BME280;68680;50.764;6.120;2023-03-20T02:15:21;99776.25;;;6.25;82.68
79048;BME280;68680;50.764;6.120;2023-03-20T02:17:46;99781.75;;;6.24;83.16
79048;BME280;68680;50.764;6.120;2023-03-20T02:20:32;99788.06;;;6.23;82.80
79048;BME280;68680;50.764;6.120;2023-03-20T02:23:43;99792.47;;;6.15;82.49
79048;BME280;68680;50.764;6.120;2023-03-20T02:26:25;99787.59;;;6.19;82.40
79048;BME280;68680;50.764;6.120;2023-03-20T02:33:06;99783.63;;;6.08;82.20
79048;BME280;68680;50.764;6.120;2023-03-20T02:36:16;99782.09;;;5.99;82.40
79048;BME280;68680;50.764;6.120;2023-03-20T02:41:54;99785.84;;;5.90;83.37
79048;BME280;68680;50.764;6.120;2023-03-20T02:44:32;99770.69;;;5.84;84.53
79048;BME280;68680;50.764;6.120;2023-03-20T02:47:06;99766.59;;;5.82;83.97
79048;BME280;68680;50.764;6.120;2023-03-20T02:49:53;99774.06;;;5.78;84.33
79048;BME280;68680;50.764;6.120;2023-03-20T02:52:31;99766.50;;;5.75;84.81
79048;BME280;68680;50.764;6.120;2023-03-20T02:55:13;99762.22;;;5.74;85.31
79048;BME280;68680;50.764;6.120;2023-03-20T02:57:51;99743.25;;;5.70;84.86
79048;BME280;68680;50.764;6.120;2023-03-20T03:00:28;99732.84;;;5.69;85.27
79048;BME280;68680;50.764;6.120;2023-03-20T03:03:05;99740.41;;;5.72;85.08
79048;BME280;68680;50.764;6.120;2023-03-20T03:05:37;99735.50;;;5.69;84.65
79048;BME280;68680;50.764;6.120;2023-03-20T03:08:08;99762.31;;;5.66;85.06
79048;BME280;68680;50.764;6.120;2023-03-20T03:10:41;99773.75;;;5.52;85.44
79048;BME280;68680;50.764;6.120;2023-03-20T03:13:14;99775.03;;;5.41;85.21
79048;BME280;68680;50.764;6.120;2023-03-20T03:15:45;99779.03;;;5.37;85.85
79048;BME280;68680;50.764;6.120;2023-03-20T03:18:17;99779.31;;;5.27;86.47
79048;BME280;68680;50.764;6.120;2023-03-20T03:20:47;99792.16;;;5.30;86.41
79048;BME280;68680;50.764;6.120;2023-03-20T03:23:30;99800.91;;;5.31;86.65
79048;BME280;68680;50.764;6.120;2023-03-20T03:25:59;99797.53;;;5.37;86.83
79048;BME280;68680;50.764;6.120;2023-03-20T03:28:32;99803.31;;;5.41;86.49
79048;BME280;68680;50.764;6.120;2023-03-20T03:31:00;99813.22;;;5.38;86.39
79048;BME280;68680;50.764;6.120;2023-03-20T03:33:29;99810.84;;;5.44;86.47
79048;BME280;68680;50.764;6.120;2023-03-20T03:36:08;99807.59;;;5.42;86.59
79048;BME280;68680;50.764;6.120;2023-03-20T03:38:43;99808.88;;;5.46;86.65
79048;BME280;68680;50.764;6.120;2023-03-20T03:41:24;99795.63;;;5.46;86.08
79048;BME280;68680;50.764;6.120;2023-03-20T03:44:01;99794.25;;;5.50;86.27
79048;BME280;68680;50.764;6.120;2023-03-20T03:46:39;99787.59;;;5.54;86.12
79048;BME280;68680;50.764;6.120;2023-03-20T03:49:12;99797.00;;;5.56;85.15
79048;BME280;68680;50.764;6.120;2023-03-20T03:51:44;99784.94;;;5.54;85.53
79048;BME280;68680;50.764;6.120;2023-03-20T03:54:17;99787.78;;;5.52;85.93
79048;BME280;68680;50.764;6.120;2023-03-20T03:56:49;99778.22;;;5.51;85.84
79048;BME280;68680;50.764;6.120;2023-03-20T03:59:22;99786.31;;;5.50;85.85
79048;BME280;68680;50.764;6.120;2023-03-20T04:01:51;99791.63;;;5.50;85.93
79048;BME280;68680;50.764;6.120;2023-03-20T04:04:18;99785.06;;;5.46;86.43
79048;BME280;68680;50.764;6.120;2023-03-20T04:06:45;99792.63;;;5.49;86.41
79048;BME280;68680;50.764;6.120;2023-03-20T04:09:11;99790.97;;;5.48;86.61
79048;BME280;68680;50.764;6.120;2023-03-20T04:11:37;99783.69;;;5.50;86.42
79048;BME280;68680;50.764;6.120;2023-03-20T04:14:04;99777.94;;;5.46;86.50
79048;BME280;68680;50.764;6.120;2023-03-20T04:16:30;99768.91;;;5.41;86.27
79048;BME280;68680;50.764;6.120;2023-03-20T04:18:55;99772.19;;;5.43;86.02
79048;BME280;68680;50.764;6.120;2023-03-20T04:21:21;99761.97;;;5.40;86.09
79048;BME280;68680;50.764;6.120;2023-03-20T04:23:47;99753.41;;;5.37;85.84
79048;BME280;68680;50.764;6.120;2023-03-20T04:26:13;99757.03;;;5.36;86.43
79048;BME280;68680;50.764;6.120;2023-03-20T04:28:39;99754.50;;;5.28;86.58
79048;BME280;68680;50.764;6.120;2023-03-20T04:31:06;99750.38;;;5.26;86.30
79048;BME280;68680;50.764;6.120;2023-03-20T04:33:32;99755.22;;;5.22;86.23
79048;BME280;68680;50.764;6.120;2023-03-20T04:35:58;99758.22;;;5.19;86.69
79048;BME280;68680;50.764;6.120;2023-03-20T04:38:24;99773.81;;;5.14;86.72
79048;BME280;68680;50.764;6.120;2023-03-20T04:40:50;99781.75;;;5.14;87.02
79048;BME280;68680;50.764;6.120;2023-03-20T04:43:16;99778.38;;;5.20;87.23
79048;BME280;68680;50.764;6.120;2023-03-20T04:45:41;99781.69;;;5.22;87.16
79048;BME280;68680;50.764;6.120;2023-03-20T04:48:09;99773.75;;;5.22;87.21
79048;BME280;68680;50.764;6.120;2023-03-20T04:50:35;99783.94;;;5.25;87.05
79048;BME280;68680;50.764;6.120;2023-03-20T04:53:01;99774.19;;;5.26;86.87
79048;BME280;68680;50.764;6.120;2023-03-20T04:55:27;99776.94;;;5.32;86.67
79048;BME280;68680;50.764;6.120;2023-03-20T04:57:52;99773.47;;;5.32;87.05
79048;BME280;68680;50.764;6.120;2023-03-20T05:00:19;99769.66;;;5.34;86.58
79048;BME280;68680;50.764;6.120;2023-03-20T05:02:45;99768.44;;;5.37;86.56
79048;BME280;68680;50.764;6.120;2023-03-20T05:05:12;99776.75;;;5.34;86.25
79048;BME280;68680;50.764;6.120;2023-03-20T05:07:38;99775.28;;;5.31;86.23
79048;BME280;68680;50.764;6.120;2023-03-20T05:10:05;99767.72;;;5.28;86.56
79048;BME280;68680;50.764;6.120;2023-03-20T05:12:31;99766.09;;;5.27;86.40
79048;BME280;68680;50.764;6.120;2023-03-20T05:14:57;99766.09;;;5.27;86.64
79048;BME280;68680;50.764;6.120;2023-03-20T05:17:23;99770.53;;;5.27;86.57
79048;BME280;68680;50.764;6.120;2023-03-20T05:19:49;99765.69;;;5.30;86.35
79048;BME280;68680;50.764;6.120;2023-03-20T05:22:17;99774.94;;;5.34;86.05
79048;BME280;68680;50.764;6.120;2023-03-20T05:24:43;99774.66;;;5.29;86.23
79048;BME280;68680;50.764;6.120;2023-03-20T05:27:09;99776.66;;;5.27;86.12
79048;BME280;68680;50.764;6.120;2023-03-20T05:29:35;99769.16;;;5.31;86.18
79048;BME280;68680;50.764;6.120;2023-03-20T05:32:01;99771.00;;;5.30;85.91
79048;BME280;68680;50.764;6.120;2023-03-20T05:34:27;99765.34;;;5.33;85.52
79048;BME280;68680;50.764;6.120;2023-03-20T05:36:53;99766.19;;;5.34;85.58
79048;BME280;68680;50.764;6.120;2023-03-20T05:39:20;99751.97;;;5.35;85.26
79048;BME280;68680;50.764;6.120;2023-03-20T05:41:46;99750.66;;;5.31;85.56
79048;BME280;68680;50.764;6.120;2023-03-20T05:44:12;99752.47;;;5.30;84.82
79048;BME280;68680;50.764;6.120;2023-03-20T05:46:38;99756.16;;;5.29;85.13
79048;BME280;68680;50.764;6.120;2023-03-20T05:49:04;99744.84;;;5.21;85.01
79048;BME280;68680;50.764;6.120;2023-03-20T05:51:30;99761.78;;;5.26;85.28
79048;BME280;68680;50.764;6.120;2023-03-20T05:53:56;99764.59;;;5.25;84.95
79048;BME280;68680;50.764;6.120;2023-03-20T05:56:23;99769.53;;;5.28;85.20
79048;BME280;68680;50.764;6.120;2023-03-20T05:58:49;99770.72;;;5.25;85.11
79048;BME280;68680;50.764;6.120;2023-03-20T06:01:14;99771.19;;;5.29;84.57
79048;BME280;68680;50.764;6.120;2023-03-20T06:03:40;99776.28;;;5.30;84.87
79048;BME280;68680;50.764;6.120;2023-03-20T06:06:07;99773.19;;;5.27;84.24
79048;BME280;68680;50.764;6.120;2023-03-20T06:08:33;99771.38;;;5.27;84.81
79048;BME280;68680;50.764;6.120;2023-03-20T06:10:59;99767.06;;;5.26;84.85
79048;BME280;68680;50.764;6.120;2023-03-20T06:13:26;99762.44;;;5.28;84.90
79048;BME280;68680;50.764;6.120;2023-03-20T06:15:52;99760.41;;;5.30;84.48
79048;BME280;68680;50.764;6.120;2023-03-20T06:18:17;99764.09;;;5.29;84.44
79048;BME280;68680;50.764;6.120;2023-03-20T06:20:43;99765.78;;;5.37;84.17
79048;BME280;68680;50.764;6.120;2023-03-20T06:23:09;99767.81;;;5.35;84.12
79048;BME280;68680;50.764;6.120;2023-03-20T06:25:35;99770.19;;;5.45;83.55
79048;BME280;68680;50.764;6.120;2023-03-20T06:28:01;99760.69;;;5.50;83.73
79048;BME280;68680;50.764;6.120;2023-03-20T06:30:28;99750.66;;;5.46;82.74
79048;BME280;68680;50.764;6.120;2023-03-20T06:32:54;99764.00;;;5.52;82.81
79048;BME280;68680;50.764;6.120;2023-03-20T06:35:19;99754.28;;;5.59;82.22
79048;BME280;68680;50.764;6.120;2023-03-20T06:37:45;99766.34;;;5.62;81.99
79048;BME280;68680;50.764;6.120;2023-03-20T06:40:11;99761.47;;;5.65;81.80
79048;BME280;68680;50.764;6.120;2023-03-20T06:42:37;99752.09;;;5.63;82.50
79048;BME280;68680;50.764;6.120;2023-03-20T06:45:04;99765.03;;;5.72;81.22
79048;BME280;68680;50.764;6.120;2023-03-20T06:47:31;99760.00;;;5.77;81.56
79048;BME280;68680;50.764;6.120;2023-03-20T06:49:57;99772.25;;;5.78;81.21
79048;BME280;68680;50.764;6.120;2023-03-20T06:52:23;99776.34;;;5.81;80.44
79048;BME280;68680;50.764;6.120;2023-03-20T06:54:48;99784.66;;;5.78;80.93
79048;BME280;68680;50.764;6.120;2023-03-20T06:57:14;99787.78;;;5.82;80.65
79048;BME280;68680;50.764;6.120;2023-03-20T06:59:40;99788.22;;;5.85;80.27
79048;BME280;68680;50.764;6.120;2023-03-20T07:02:06;99796.63;;;5.89;80.68
79048;BME280;68680;50.764;6.120;2023-03-20T07:04:33;99798.34;;;5.96;80.18
79048;BME280;68680;50.764;6.120;2023-03-20T07:06:59;99800.44;;;6.01;79.94
79048;BME280;68680;50.764;6.120;2023-03-20T07:09:25;99810.66;;;6.04;79.58
79048;BME280;68680;50.764;6.120;2023-03-20T07:11:51;99799.44;;;6.02;79.51
79048;BME280;68680;50.764;6.120;2023-03-20T07:14:16;99809.59;;;5.98;79.52
79048;BME280;68680;50.764;6.120;2023-03-20T07:16:42;99808.03;;;6.04;80.09
79048;BME280;68680;50.764;6.120;2023-03-20T07:19:08;99809.34;;;6.14;79.47
79048;BME280;68680;50.764;6.120;2023-03-20T07:21:35;99813.91;;;6.21;78.86
79048;BME280;68680;50.764;6.120;2023-03-20T07:24:01;99813.53;;;6.24;79.34
79048;BME280;68680;50.764;6.120;2023-03-20T07:26:27;99820.69;;;6.23;77.91
79048;BME280;68680;50.764;6.120;2023-03-20T07:28:52;99821.53;;;6.30;78.32
79048;BME280;68680;50.764;6.120;2023-03-20T07:31:20;99830.50;;;6.29;77.96
79048;BME280;68680;50.764;6.120;2023-03-20T07:33:46;99837.97;;;6.40;78.75
79048;BME280;68680;50.764;6.120;2023-03-20T07:36:12;99831.97;;;6.32;77.77
79048;BME280;68680;50.764;6.120;2023-03-20T07:38:39;99838.16;;;6.39;78.80
79048;BME280;68680;50.764;6.120;2023-03-20T07:41:06;99834.13;;;6.43;78.59
79048;BME280;68680;50.764;6.120;2023-03-20T07:43:32;99840.13;;;6.51;78.10
79048;BME280;68680;50.764;6.120;2023-03-20T07:46:01;99826.06;;;6.51;77.84
79048;BME280;68680;50.764;6.120;2023-03-20T07:48:27;99836.16;;;6.62;77.85
79048;BME280;68680;50.764;6.120;2023-03-20T07:50:53;99835.00;;;6.71;77.71
79048;BME280;68680;50.764;6.120;2023-03-20T07:53:18;99836.28;;;6.75;77.95
79048;BME280;68680;50.764;6.120;2023-03-20T07:55:45;99833.97;;;6.87;77.28
79048;BME280;68680;50.764;6.120;2023-03-20T07:58:11;99845.16;;;6.89;77.71
79048;BME280;68680;50.764;6.120;2023-03-20T08:00:37;99838.44;;;6.86;76.72
79048;BME280;68680;50.764;6.120;2023-03-20T08:03:03;99849.56;;;6.75;77.02
79048;BME280;68680;50.764;6.120;2023-03-20T08:05:29;99847.00;;;6.67;76.34
79048;BME280;68680;50.764;6.120;2023-03-20T08:07:55;99850.91;;;6.71;76.91
79048;BME280;68680;50.764;6.120;2023-03-20T08:10:21;99861.59;;;6.78;76.43
79048;BME280;68680;50.764;6.120;2023-03-20T08:12:48;99853.69;;;6.84;76.23
79048;BME280;68680;50.764;6.120;2023-03-20T08:15:14;99857.00;;;6.86;76.76
79048;BME280;68680;50.764;6.120;2023-03-20T08:17:41;99857.16;;;7.06;76.26
79048;BME280;68680;50.764;6.120;2023-03-20T08:20:09;99854.84;;;7.24;75.90
79048;BME280;68680;50.764;6.120;2023-03-20T08:22:35;99850.44;;;7.31;75.23
79048;BME280;68680;50.764;6.120;2023-03-20T08:25:01;99839.75;;;7.25;73.65
79048;BME280;68680;50.764;6.120;2023-03-20T08:27:26;99853.25;;;7.30;73.54
79048;BME280;68680;50.764;6.120;2023-03-20T08:29:54;99851.84;;;7.34;74.24
79048;BME280;68680;50.764;6.120;2023-03-20T08:32:19;99849.69;;;7.44;72.04
79048;BME280;68680;50.764;6.120;2023-03-20T08:34:45;99843.13;;;7.40;72.56
79048;BME280;68680;50.764;6.120;2023-03-20T08:37:11;99843.22;;;7.53;72.41
79048;BME280;68680;50.764;6.120;2023-03-20T08:39:37;99850.34;;;7.53;70.27
79048;BME280;68680;50.764;6.120;2023-03-20T08:42:03;99858.91;;;7.48;68.79
79048;BME280;68680;50.764;6.120;2023-03-20T08:44:29;99863.22;;;7.49;70.39
79048;BME280;68680;50.764;6.120;2023-03-20T08:46:56;99862.97;;;7.44;69.25
79048;BME280;68680;50.764;6.120;2023-03-20T08:49:22;99872.06;;;7.35;69.23
79048;BME280;68680;50.764;6.120;2023-03-20T08:51:48;99873.25;;;7.26;69.67
79048;BME280;68680;50.764;6.120;2023-03-20T08:54:13;99864.75;;;7.37;69.00
79048;BME280;68680;50.764;6.120;2023-03-20T08:56:39;99873.97;;;7.41;68.84
79048;BME280;68680;50.764;6.120;2023-03-20T08:59:05;99869.94;;;7.45;69.36
79048;BME280;68680;50.764;6.120;2023-03-20T09:01:31;99867.88;;;7.47;68.57
79048;BME280;68680;50.764;6.120;2023-03-20T09:03:58;99872.38;;;7.47;69.80
79048;BME280;68680;50.764;6.120;2023-03-20T09:06:24;99875.22;;;7.45;67.77
79048;BME280;68680;50.764;6.120;2023-03-20T09:08:49;99873.53;;;7.37;68.37
79048;BME280;68680;50.764;6.120;2023-03-20T09:11:15;99868.03;;;7.39;67.97
79048;BME280;68680;50.764;6.120;2023-03-20T09:13:41;99877.06;;;7.45;68.77
79048;BME280;68680;50.764;6.120;2023-03-20T09:16:08;99885.84;;;7.45;67.42
79048;BME280;68680;50.764;6.120;2023-03-20T09:18:34;99885.78;;;7.38;67.72
79048;BME280;68680;50.764;6.120;2023-03-20T09:21:01;99885.03;;;7.45;68.45
79048;BME280;68680;50.764;6.120;2023-03-20T09:23:27;99879.97;;;7.50;67.28
79048;BME280;68680;50.764;6.120;2023-03-20T09:25:52;99888.75;;;7.50;68.69
79048;BME280;68680;50.764;6.120;2023-03-20T09:28:18;99879.66;;;7.38;70.32
79048;BME280;68680;50.764;6.120;2023-03-20T09:30:44;99892.06;;;7.31;71.25
79048;BME280;68680;50.764;6.120;2023-03-20T09:33:10;99889.91;;;7.20;71.01
79048;BME280;68680;50.764;6.120;2023-03-20T09:35:36;99882.59;;;7.00;71.55
79048;BME280;68680;50.764;6.120;2023-03-20T09:38:03;99886.84;;;6.95;70.12
79048;BME280;68680;50.764;6.120;2023-03-20T09:40:39;99883.50;;;7.08;71.89
79048;BME280;68680;50.764;6.120;2023-03-20T09:43:19;99881.13;;;7.19;70.37
79048;BME280;68680;50.764;6.120;2023-03-20T09:45:58;99888.34;;;7.25;71.09
79048;BME280;68680;50.764;6.120;2023-03-20T09:48:34;99889.16;;;7.26;70.44
79048;BME280;68680;50.764;6.120;2023-03-20T09:51:14;99883.56;;;7.42;69.60
79048;BME280;68680;50.764;6.120;2023-03-20T09:53:50;99885.88;;;7.52;68.32
79048;BME280;68680;50.764;6.120;2023-03-20T09:56:25;99872.72;;;7.37;68.32
79048;BME280;68680;50.764;6.120;2023-03-20T09:58:54;99876.13;;;7.31;68.20
79048;BME280;68680;50.764;6.120;2023-03-20T10:01:25;99879.50;;;7.46;69.43
79048;BME280;68680;50.764;6.120;2023-03-20T10:03:55;99882.50;;;7.64;68.70
79048;BME280;68680;50.764;6.120;2023-03-20T10:06:23;99882.44;;;7.58;68.10
79048;BME280;68680;50.764;6.120;2023-03-20T10:08:50;99879.56;;;7.53;68.39
79048;BME280;68680;50.764;6.120;2023-03-20T10:11:33;99886.22;;;7.42;68.40
79048;BME280;68680;50.764;6.120;2023-03-20T10:14:17;99895.06;;;7.49;68.40
79048;BME280;68680;50.764;6.120;2023-03-20T10:17:01;99879.09;;;7.42;68.02
79048;BME280;68680;50.764;6.120;2023-03-20T10:19:30;99883.13;;;7.38;68.16
79048;BME280;68680;50.764;6.120;2023-03-20T10:22:04;99895.78;;;7.36;66.82
79048;BME280;68680;50.764;6.120;2023-03-20T10:24:39;99883.69;;;7.34;66.94
79048;BME280;68680;50.764;6.120;2023-03-20T10:27:18;99889.78;;;7.28;68.30
79048;BME280;68680;50.764;6.120;2023-03-20T10:29:58;99890.34;;;7.23;67.41
79048;BME280;68680;50.764;6.120;2023-03-20T10:32:35;99888.69;;;7.22;67.71
79048;BME280;68680;50.764;6.120;2023-03-20T10:35:19;99890.34;;;7.23;67.13
79048;BME280;68680;50.764;6.120;2023-03-20T10:38:06;99896.88;;;7.21;66.91
79048;BME280;68680;50.764;6.120;2023-03-20T10:40:39;99880.72;;;7.16;66.40
79048;BME280;68680;50.764;6.120;2023-03-20T10:43:14;99891.44;;;7.08;67.49
79048;BME280;68680;50.764;6.120;2023-03-20T10:45:45;99882.59;;;7.00;67.17
79048;BME280;68680;50.764;6.120;2023-03-20T10:48:16;99889.31;;;6.96;68.04
79048;BME280;68680;50.764;6.120;2023-03-20T10:50:49;99883.25;;;7.03;68.72
79048;BME280;68680;50.764;6.120;2023-03-20T10:53:30;99877.00;;;7.10;67.60
79048;BME280;68680;50.764;6.120;2023-03-20T10:56:04;99883.19;;;6.96;67.94
79048;BME280;68680;50.764;6.120;2023-03-20T10:58:36;99884.06;;;7.03;68.39
79048;BME280;68680;50.764;6.120;2023-03-20T11:01:04;99886.78;;;7.10;68.08
79048;BME280;68680;50.764;6.120;2023-03-20T11:03:32;99883.66;;;7.06;67.76
79048;BME280;68680;50.764;6.120;2023-03-20T11:06:02;99896.81;;;7.14;69.60
79048;BME280;68680;50.764;6.120;2023-03-20T11:08:34;99884.25;;;7.01;71.09
79048;BME280;68680;50.764;6.120;2023-03-20T11:11:03;99880.97;;;6.99;72.93
79048;BME280;68680;50.764;6.120;2023-03-20T11:13:32;99883.06;;;7.04;74.64
79048;BME280;68680;50.764;6.120;2023-03-20T11:16:10;99883.75;;;6.91;72.28
79048;BME280;68680;50.764;6.120;2023-03-20T11:18:41;99877.75;;;6.83;72.95
79048;BME280;68680;50.764;6.120;2023-03-20T11:21:14;99876.56;;;6.85;73.53
79048;BME280;68680;50.764;6.120;2023-03-20T11:23:40;99874.78;;;6.92;75.08
79048;BME280;68680;50.764;6.120;2023-03-20T11:26:13;99870.75;;;6.96;74.07
79048;BME280;68680;50.764;6.120;2023-03-20T11:28:40;99864.78;;;6.94;74.86
79048;BME280;68680;50.764;6.120;2023-03-20T11:31:17;99863.97;;;6.94;76.17
79048;BME280;68680;50.764;6.120;2023-03-20T11:33:50;99863.88;;;6.81;75.66
79048;BME280;68680;50.764;6.120;2023-03-20T11:36:24;99848.16;;;6.79;76.36
79048;BME280;68680;50.764;6.120;2023-03-20T11:38:57;99845.00;;;6.90;76.41
79048;BME280;68680;50.764;6.120;2023-03-20T11:41:27;99843.16;;;6.91;76.24
79048;BME280;68680;50.764;6.120;2023-03-20T11:43:54;99840.34;;;6.99;76.96
79048;BME280;68680;50.764;6.120;2023-03-20T11:46:22;99828.97;;;6.98;76.69
79048;BME280;68680;50.764;6.120;2023-03-20T11:49:04;99821.38;;;6.95;75.88
79048;BME280;68680;50.764;6.120;2023-03-20T11:51:31;99830.09;;;6.89;76.45
79048;BME280;68680;50.764;6.120;2023-03-20T11:54:01;99818.72;;;6.95;77.64
79048;BME280;68680;50.764;6.120;2023-03-20T11:56:31;99817.81;;;7.10;77.16
79048;BME280;68680;50.764;6.120;2023-03-20T11:59:02;99805.50;;;7.30;76.75
79048;BME280;68680;50.764;6.120;2023-03-20T12:01:37;99805.97;;;7.40;75.95
79048;BME280;68680;50.764;6.120;2023-03-20T12:04:10;99791.38;;;7.51;75.16
79048;BME280;68680;50.764;6.120;2023-03-20T12:06:44;99793.50;;;7.68;75.24
79048;BME280;68680;50.764;6.120;2023-03-20T12:09:28;99799.25;;;7.78;72.64
79048;BME280;68680;50.764;6.120;2023-03-20T12:12:01;99790.53;;;7.91;72.26
79048;BME280;68680;50.764;6.120;2023-03-20T12:14:37;99789.59;;;8.18;71.62
79048;BME280;68680;50.764;6.120;2023-03-20T12:17:31;99781.31;;;8.41;70.56
79048;BME280;68680;50.764;6.120;2023-03-20T12:20:06;99777.66;;;8.55;69.98
79048;BME280;68680;50.764;6.120;2023-03-20T12:22:46;99785.03;;;8.67;69.54
79048;BME280;68680;50.764;6.120;2023-03-20T12:25:21;99768.66;;;8.83;68.27
79048;BME280;68680;50.764;6.120;2023-03-20T12:28:00;99767.22;;;9.00;66.49
79048;BME280;68680;50.764;6.120;2023-03-20T12:30:39;99766.84;;;8.90;65.88
79048;BME280;68680;50.764;6.120;2023-03-20T12:33:14;99770.13;;;8.79;66.26
79048;BME280;68680;50.764;6.120;2023-03-20T12:35:48;99762.72;;;8.81;66.53
79048;BME280;68680;50.764;6.120;2023-03-20T12:38:23;99754.56;;;8.89;67.07
79048;BME280;68680;50.764;6.120;2023-03-20T12:40:57;99743.69;;;9.10;66.75
79048;BME280;68680;50.764;6.120;2023-03-20T12:43:34;99743.09;;;8.95;64.88
79048;BME280;68680;50.764;6.120;2023-03-20T12:46:21;99743.09;;;9.08;66.21
79048;BME280;68680;50.764;6.120;2023-03-20T12:49:06;99739.53;;;9.27;65.02
79048;BME280;68680;50.764;6.120;2023-03-20T12:51:49;99737.06;;;9.39;63.61
79048;BME280;68680;50.764;6.120;2023-03-20T12:54:41;99734.56;;;9.51;63.81
79048;BME280;68680;50.764;6.120;2023-03-20T12:57:22;99739.41;;;9.67;63.35
79048;BME280;68680;50.764;6.120;2023-03-20T13:00:14;99729.00;;;9.65;63.49
79048;BME280;68680;50.764;6.120;2023-03-20T13:03:05;99731.94;;;9.95;63.04
79048;BME280;68680;50.764;6.120;2023-03-20T13:05:44;99737.78;;;10.10;61.62
79048;BME280;68680;50.764;6.120;2023-03-20T13:08:42;99740.47;;;10.10;61.26
79048;BME280;68680;50.764;6.120;2023-03-20T13:11:23;99738.63;;;10.17;61.29
79048;BME280;68680;50.764;6.120;2023-03-20T13:13:56;99734.66;;;10.26;60.78
79048;BME280;68680;50.764;6.120;2023-03-20T13:16:37;99745.06;;;10.35;60.60
79048;BME280;68680;50.764;6.120;2023-03-20T13:19:15;99735.13;;;10.10;61.59
79048;BME280;68680;50.764;6.120;2023-03-20T13:21:55;99739.88;;;10.02;60.52
79048;BME280;68680;50.764;6.120;2023-03-20T13:24:35;99755.78;;;9.77;61.93
79048;BME280;68680;50.764;6.120;2023-03-20T13:27:15;99748.47;;;9.59;63.15
79048;BME280;68680;50.764;6.120;2023-03-20T13:30:33;99735.19;;;9.53;61.13
79048;BME280;68680;50.764;6.120;2023-03-20T13:33:25;99745.84;;;9.53;62.94
79048;BME280;68680;50.764;6.120;2023-03-20T13:36:02;99747.69;;;9.52;62.59